Time;durP1;ratioP1;P1;durP2;ratioP2;P2;SDS_P1;SDS_P2;PMS_P1;PMS_P2;Temp;Humidity;BMP_temperature;BMP_pressure;BME280_temperature;BME280_humidity;BME280_pressure;Samples;Min_cycle;Max_cycle;Signal;HPM_P1;HPM_P2
2023/02/01 00:02:40;;;;;;;;;8.00;8.00;;;;;7.12;64.67;98099.00;6147483;28;96168;-68
2023/02/01 00:05:56;;;;;;;;;10.00;9.00;;;;;7.24;64.27;98096.41;6149039;28;96289;-67
2023/02/01 00:08:59;;;;;;;;;11.00;10.00;;;;;7.31;64.26;98098.00;6130079;28;96439;-67
2023/02/01 00:12:03;;;;;;;;;9.20;8.80;;;;;7.35;64.09;98120.66;6129961;28;96704;-68
2023/02/01 00:15:07;;;;;;;;;9.00;9.00;;;;;7.32;63.99;98104.19;6114577;28;98974;-68
2023/02/01 00:18:10;;;;;;;;;9.80;9.20;;;;;7.32;64.00;98101.50;6147611;28;96306;-68
2023/02/01 00:21:17;;;;;;;;;7.75;7.25;;;;;7.27;64.34;98091.44;6151517;28;96294;-68
2023/02/01 00:24:20;;;;;;;;;8.00;8.00;;;;;7.17;64.63;98092.97;6136199;28;98629;-68
2023/02/01 00:27:23;;;;;;;;;9.00;8.20;;;;;7.00;64.91;98103.41;6150162;28;96336;-66
2023/02/01 00:30:26;;;;;;;;;9.00;9.00;;;;;7.05;65.03;98100.88;6152727;28;96303;-67
2023/02/01 00:33:30;;;;;;;;;7.00;7.00;;;;;7.02;64.86;98098.66;6150434;28;96252;-68
2023/02/01 00:36:35;;;;;;;;;9.00;8.00;;;;;6.86;64.67;98089.28;6154582;28;96817;-67
2023/02/01 00:39:38;;;;;;;;;5.40;5.40;;;;;7.01;64.74;98097.00;6153562;28;96311;-68
2023/02/01 00:42:41;;;;;;;;;7.00;7.00;;;;;7.18;64.34;98078.53;6153927;28;96432;-68
2023/02/01 00:45:46;;;;;;;;;10.00;10.00;;;;;7.29;63.73;98083.16;6137522;28;96407;-68
2023/02/01 00:48:50;;;;;;;;;7.60;7.60;;;;;7.26;63.72;98087.13;6137783;28;96341;-68
2023/02/01 00:51:55;;;;;;;;;6.40;5.80;;;;;7.37;63.32;98089.09;6138026;28;97583;-68
2023/02/01 00:54:59;;;;;;;;;7.00;6.60;;;;;7.33;63.21;98082.50;6139283;28;96741;-68
2023/02/01 00:58:02;;;;;;;;;5.25;5.00;;;;;7.40;62.71;98072.53;6141102;28;96792;-67
2023/02/01 01:01:07;;;;;;;;;8.80;8.40;;;;;7.47;62.02;98082.38;6123313;28;96668;-68
2023/02/01 01:04:11;;;;;;;;;8.25;8.25;;;;;7.26;62.27;98088.97;6118922;28;96636;-67
2023/02/01 01:07:16;;;;;;;;;10.00;9.40;;;;;7.24;62.29;98091.03;6125779;28;96462;-68
2023/02/01 01:10:19;;;;;;;;;9.00;8.80;;;;;7.28;61.85;98087.69;6135081;28;96690;-68
2023/02/01 01:13:23;;;;;;;;;9.00;9.00;;;;;7.23;61.57;98073.34;6151548;28;96553;-68
2023/02/01 01:16:29;;;;;;;;;10.00;10.00;;;;;7.34;61.35;98084.13;6135616;28;96205;-68
2023/02/01 01:19:32;;;;;;;;;9.25;9.25;;;;;7.44;61.02;98091.69;6137808;28;96227;-68
2023/02/01 01:22:37;;;;;;;;;7.00;7.00;;;;;7.52;60.61;98106.69;6149423;28;96431;-68
2023/02/01 01:25:41;;;;;;;;;7.00;7.00;;;;;7.59;60.15;98100.19;6152731;28;96357;-68
2023/02/01 01:28:44;;;;;;;;;9.00;8.00;;;;;7.54;59.73;98100.03;6135630;28;96248;-67
2023/02/01 01:31:48;;;;;;;;;8.60;8.00;;;;;7.82;59.77;98112.97;6135381;28;97413;-68
2023/02/01 01:34:51;;;;;;;;;8.00;6.60;;;;;7.77;59.59;98100.22;6135642;28;96303;-67
2023/02/01 01:37:56;;;;;;;;;9.00;8.00;;;;;7.96;59.02;98109.09;6149881;28;96226;-67
2023/02/01 01:40:59;;;;;;;;;8.60;7.60;;;;;8.04;59.10;98111.47;6117247;28;96602;-68
2023/02/01 01:44:05;;;;;;;;;8.00;8.00;;;;;8.19;58.75;98100.34;6133733;28;96219;-68
2023/02/01 01:47:10;;;;;;;;;9.40;9.40;;;;;8.34;58.61;98126.84;6116765;28;96989;-68
2023/02/01 01:50:19;;;;;;;;;8.20;7.20;;;;;8.30;58.57;98118.44;6149380;28;96266;-67
2023/02/01 01:53:29;;;;;;;;;8.00;8.00;;;;;8.37;59.21;98126.38;6132426;28;96371;-68
2023/02/01 01:56:35;;;;;;;;;6.50;6.50;;;;;8.25;59.79;98118.25;6132219;28;96335;-67
2023/02/01 01:59:41;;;;;;;;;8.20;7.80;;;;;8.02;59.83;98102.81;6151081;28;96811;-68
2023/02/01 02:02:48;;;;;;;;;5.00;5.00;;;;;7.74;60.64;98124.81;6137145;28;96750;-68
2023/02/01 02:05:55;;;;;;;;;8.00;8.00;;;;;7.65;60.66;98096.63;6154591;28;97830;-68
2023/02/01 02:09:00;;;;;;;;;9.00;9.00;;;;;7.73;60.56;98109.75;6138453;28;96416;-68
2023/02/01 02:12:04;;;;;;;;;6.80;6.80;;;;;7.59;60.68;98112.78;6156390;28;96250;-68
2023/02/01 02:15:10;;;;;;;;;9.40;8.40;;;;;7.51;60.40;98097.00;6139716;28;96279;-68
2023/02/01 02:18:21;;;;;;;;;7.00;5.00;;;;;7.30;60.13;98114.28;6157369;28;96833;-67
2023/02/01 02:21:43;;;;;;;;;7.75;7.75;;;;;7.35;60.07;98120.66;6140699;28;96249;-67
2023/02/01 02:25:44;;;;;;;;;7.00;6.40;;;;;7.36;59.65;98141.06;6125913;28;98799;-67
2023/02/01 02:29:12;;;;;;;;;9.00;8.40;;;;;7.45;59.10;98138.09;6146104;28;96297;-68
2023/02/01 02:32:53;;;;;;;;;6.00;6.00;;;;;7.45;58.68;98156.88;6154278;28;96804;-68
2023/02/01 02:36:02;;;;;;;;;5.00;5.00;;;;;7.43;58.45;98124.91;6153777;28;96417;-68
2023/02/01 02:39:15;;;;;;;;;7.25;7.25;;;;;7.46;58.29;98134.38;6157922;28;96285;-67
2023/02/01 02:49:22;;;;;;;;;4.20;4.00;;;;;7.45;56.71;98151.50;6126487;28;96845;-67
2023/02/01 02:56:02;;;;;;;;;;;;;;;;;;;;;
2023/02/01 03:05:53;;;;;;;;;5.00;5.00;;;;;7.50;56.46;98173.94;6156847;28;96784;-67
2023/02/01 03:09:01;;;;;;;;;5.25;5.25;;;;;7.48;56.71;98172.53;6142904;28;96190;-68
2023/02/01 03:15:38;;;;;;;;;3.20;3.00;;;;;7.39;57.55;98170.09;6125676;28;98329;-68
2023/02/01 03:18:49;;;;;;;;;7.00;7.00;;;;;7.27;58.24;98171.88;6160095;28;96298;-68
2023/02/01 03:21:56;;;;;;;;;3.60;3.60;;;;;7.22;58.61;98177.06;6142081;28;96842;-68
2023/02/01 03:25:11;;;;;;;;;4.00;4.00;;;;;7.24;58.71;98185.69;6140241;28;96551;-67
2023/02/01 03:28:20;;;;;;;;;4.50;4.50;;;;;7.32;58.39;98196.16;6156531;28;96228;-68
2023/02/01 03:31:25;;;;;;;;;3.00;2.60;;;;;7.39;58.39;98201.47;6155412;28;96168;-68
2023/02/01 03:34:28;;;;;;;;;4.00;4.00;;;;;7.28;58.84;98208.34;6141560;28;96181;-67
2023/02/01 03:37:32;;;;;;;;;3.75;3.00;;;;;7.19;59.27;98204.28;6141034;28;96525;-68
2023/02/01 03:40:38;;;;;;;;;3.60;3.60;;;;;7.23;59.26;98204.69;6158224;28;96255;-68
2023/02/01 03:43:52;;;;;;;;;4.00;4.00;;;;;7.27;58.95;98198.69;6126080;28;96865;-68
2023/02/01 03:47:00;;;;;;;;;6.60;6.40;;;;;7.48;58.98;98215.44;6143502;28;96335;-67
2023/02/01 03:50:07;;;;;;;;;4.00;4.00;;;;;7.49;58.93;98215.22;6161041;28;96234;-67
2023/02/01 03:53:15;;;;;;;;;4.00;4.00;;;;;7.34;59.45;98220.06;6143197;28;96240;-67
2023/02/01 03:56:25;;;;;;;;;4.40;4.40;;;;;7.43;59.24;98228.69;6126436;28;98428;-67
2023/02/01 03:59:30;;;;;;;;;2.60;2.60;;;;;7.39;59.35;98214.88;6155003;28;96238;-67
2023/02/01 04:02:33;;;;;;;;;4.60;4.60;;;;;7.43;59.41;98217.97;6136117;28;96380;-67
2023/02/01 04:05:37;;;;;;;;;5.00;5.00;;;;;7.36;58.98;98218.00;6155524;28;96331;-67
2023/02/01 04:08:43;;;;;;;;;4.00;4.00;;;;;7.37;59.16;98219.66;6143762;28;96816;-68
2023/02/01 04:11:47;;;;;;;;;5.00;5.00;;;;;7.42;59.08;98208.25;6159083;28;96414;-68
2023/02/01 04:14:50;;;;;;;;;6.00;5.00;;;;;7.38;58.89;98207.84;6157083;28;96310;-67
2023/02/01 04:17:54;;;;;;;;;4.00;4.00;;;;;7.25;59.17;98211.47;6155015;28;96212;-68
2023/02/01 04:20:57;;;;;;;;;6.75;6.75;;;;;7.27;59.16;98209.41;6154566;28;97540;-67
2023/02/01 04:24:00;;;;;;;;;8.00;8.00;;;;;7.13;59.48;98204.34;6161035;28;96844;-67
2023/02/01 04:27:06;;;;;;;;;9.00;8.00;;;;;7.04;59.94;98213.69;6159880;28;96349;-67
2023/02/01 04:30:11;;;;;;;;;7.50;7.50;;;;;7.02;60.00;98215.75;6156469;28;96331;-68
2023/02/01 04:33:15;;;;;;;;;11.00;10.40;;;;;6.99;60.25;98226.91;6155844;28;96826;-68
2023/02/01 04:36:19;;;;;;;;;8.00;7.75;;;;;7.00;60.23;98221.31;6138811;28;98593;-68
2023/02/01 04:39:22;;;;;;;;;7.40;7.40;;;;;6.93;60.25;98216.00;6157637;28;96237;-68
2023/02/01 04:42:28;;;;;;;;;8.00;8.00;;;;;6.93;60.43;98217.88;6157077;28;96240;-68
2023/02/01 04:45:31;;;;;;;;;6.00;6.00;;;;;6.86;60.77;98230.47;6157920;28;96215;-68
2023/02/01 04:48:34;;;;;;;;;5.75;5.75;;;;;6.92;60.86;98225.06;6143871;28;96329;-67
2023/02/01 04:51:38;;;;;;;;;7.00;7.00;;;;;6.99;60.15;98225.03;6157672;28;96406;-67
2023/02/01 04:54:41;;;;;;;;;10.00;8.60;;;;;7.02;60.43;98231.81;6139959;28;98679;-67
2023/02/01 04:57:46;;;;;;;;;6.00;6.00;;;;;6.95;60.51;98239.88;6153863;28;96876;-68
2023/02/01 05:00:51;;;;;;;;;9.00;9.00;;;;;6.92;60.40;98243.84;6150017;28;96735;-67
2023/02/01 05:03:54;;;;;;;;;7.00;6.00;;;;;6.88;60.79;98242.63;6152764;28;96835;-68
2023/02/01 05:06:57;;;;;;;;;6.00;6.00;;;;;6.85;61.13;98240.34;6122038;28;97164;-68
2023/02/01 05:10:01;;;;;;;;;9.00;7.00;;;;;6.86;61.30;98246.53;6133320;28;96657;-67
2023/02/01 05:16:26;;;;;;;;;7.00;7.00;;;;;6.96;61.10;98236.19;6148332;28;98013;-68
2023/02/01 05:19:30;;;;;;;;;7.00;7.00;;;;;6.96;60.78;98247.72;6149292;28;97187;-68
2023/02/01 05:22:33;;;;;;;;;4.40;4.40;;;;;7.08;60.60;98239.00;6132865;28;97075;-68
2023/02/01 05:25:36;;;;;;;;;6.00;5.00;;;;;7.11;60.57;98236.72;6149876;28;96228;-68
2023/02/01 05:28:41;;;;;;;;;8.00;7.00;;;;;7.13;60.64;98233.84;6151264;28;97325;-68
2023/02/01 05:31:45;;;;;;;;;6.00;6.00;;;;;7.06;60.76;98223.13;6152068;28;96342;-68
2023/02/01 05:34:49;;;;;;;;;5.00;5.00;;;;;7.16;60.57;98238.75;6149719;28;96253;-68
2023/02/01 05:37:53;;;;;;;;;5.40;5.40;;;;;7.15;60.65;98229.88;6139221;28;96630;-67
2023/02/01 05:40:56;;;;;;;;;6.00;6.00;;;;;7.10;60.64;98235.06;6155341;28;96554;-68
2023/02/01 05:44:01;;;;;;;;;4.40;4.40;;;;;7.03;60.20;98212.88;6139533;28;97926;-68
2023/02/01 05:47:05;;;;;;;;;5.00;5.00;;;;;7.23;60.21;98228.81;6143085;28;96267;-68
2023/02/01 05:50:08;;;;;;;;;3.00;3.00;;;;;7.16;60.44;98242.25;6162190;28;96254;-68
2023/02/01 05:53:12;;;;;;;;;6.00;5.00;;;;;7.12;60.22;98218.78;6156907;28;96442;-68
2023/02/01 05:56:15;;;;;;;;;5.00;5.00;;;;;7.24;59.80;98217.03;6154528;28;96809;-68
2023/02/01 05:59:21;;;;;;;;;5.00;5.00;;;;;7.11;59.52;98190.31;6162097;28;96194;-68
2023/02/01 06:02:25;;;;;;;;;4.80;4.80;;;;;7.22;58.95;98219.97;6139212;28;96635;-68
2023/02/01 06:05:28;;;;;;;;;8.00;7.40;;;;;7.25;59.11;98202.59;6143662;28;98386;-67
2023/02/01 06:08:31;;;;;;;;;6.00;5.00;;;;;7.30;58.69;98221.53;6165416;28;96307;-68
2023/02/01 06:11:35;;;;;;;;;5.00;5.00;;;;;7.35;58.08;98217.19;6147492;28;97863;-68
2023/02/01 06:14:39;;;;;;;;;5.75;5.75;;;;;7.40;57.54;98200.44;6140592;28;96607;-68
2023/02/01 06:17:44;;;;;;;;;4.20;3.20;;;;;7.49;57.27;98214.38;6137814;28;96235;-68
2023/02/01 06:20:53;;;;;;;;;8.00;7.00;;;;;7.42;57.20;98200.22;6130426;28;99334;-67
2023/02/01 06:23:57;;;;;;;;;8.00;8.00;;;;;7.45;56.77;98211.31;6161492;28;96240;-68
2023/02/01 06:27:00;;;;;;;;;7.00;7.00;;;;;7.45;56.29;98207.81;6160052;28;96818;-68
2023/02/01 06:30:07;;;;;;;;;4.80;4.00;;;;;7.40;56.22;98206.63;6119731;28;96787;-68
2023/02/01 06:33:10;;;;;;;;;7.00;7.00;;;;;7.59;55.70;98210.19;6134001;28;96442;-68
2023/02/01 06:36:15;;;;;;;;;4.60;4.60;;;;;7.59;54.60;98206.66;6157430;28;96114;-71
2023/02/01 06:39:19;;;;;;;;;4.00;4.00;;;;;7.76;54.48;98207.78;6131508;28;96816;-68
2023/02/01 06:42:22;;;;;;;;;5.20;4.80;;;;;7.76;53.95;98222.00;6139307;28;96975;-68
2023/02/01 06:45:27;;;;;;;;;4.00;4.00;;;;;7.84;53.40;98207.47;6157297;28;96375;-68
2023/02/01 06:48:32;;;;;;;;;4.20;4.20;;;;;7.99;53.19;98210.66;6155627;28;96860;-67
2023/02/01 06:51:35;;;;;;;;;4.00;3.00;;;;;8.00;52.61;98206.09;6139257;28;98314;-68
2023/02/01 06:54:39;;;;;;;;;4.60;4.60;;;;;8.03;51.96;98201.09;6158773;28;96218;-68
2023/02/01 06:57:42;;;;;;;;;6.60;5.00;;;;;7.93;51.38;98190.06;6156949;28;96307;-69
2023/02/01 07:00:47;;;;;;;;;5.00;3.00;;;;;8.04;51.60;98201.94;6129572;28;98132;-68
2023/02/01 07:03:51;;;;;;;;;6.50;5.50;;;;;7.98;51.23;98200.13;6155266;28;96596;-68
2023/02/01 07:06:55;;;;;;;;;4.75;4.25;;;;;8.14;50.98;98208.44;6138765;28;96386;-68
2023/02/01 07:09:58;;;;;;;;;8.50;8.50;;;;;8.21;50.92;98198.41;6154390;28;97047;-68
2023/02/01 07:13:02;;;;;;;;;4.00;3.50;;;;;8.26;50.40;98198.56;6158119;28;96326;-68
2023/02/01 07:16:09;;;;;;;;;6.00;4.40;;;;;8.28;50.49;98207.25;6155152;28;96591;-68
2023/02/01 07:19:12;;;;;;;;;6.00;5.00;;;;;8.39;50.17;98197.66;6158861;28;96185;-67
2023/02/01 07:22:17;;;;;;;;;4.00;4.00;;;;;8.15;50.24;98201.19;6159448;28;96281;-67
2023/02/01 07:25:20;;;;;;;;;4.60;4.60;;;;;8.38;49.92;98197.88;6159724;28;96306;-68
2023/02/01 07:28:24;;;;;;;;;5.33;5.00;;;;;8.40;49.77;98190.41;6160498;28;96503;-68
2023/02/01 07:31:28;;;;;;;;;4.00;3.00;;;;;8.47;49.68;98178.53;6160907;28;96764;-68
2023/02/01 07:34:32;;;;;;;;;4.20;4.20;;;;;8.59;49.11;98183.97;6144640;28;96067;-67
2023/02/01 07:37:36;;;;;;;;;8.00;7.00;;;;;8.67;48.78;98183.66;6157121;28;96229;-67
2023/02/01 07:40:39;;;;;;;;;6.00;5.60;;;;;8.74;48.93;98180.91;6154116;28;96212;-67
2023/02/01 07:43:43;;;;;;;;;8.80;8.80;;;;;8.80;48.52;98191.53;6154239;28;96469;-68
2023/02/01 07:46:47;;;;;;;;;7.00;5.80;;;;;8.85;48.22;98185.47;6155216;28;97250;-68
2023/02/01 07:49:51;;;;;;;;;6.00;6.00;;;;;8.78;48.03;98185.59;6139279;28;97557;-68
2023/02/01 07:52:54;;;;;;;;;7.00;7.00;;;;;8.80;47.99;98175.41;6156646;28;96326;-67
2023/02/01 07:55:58;;;;;;;;;7.60;7.00;;;;;8.68;47.79;98188.00;6139462;28;98949;-68
2023/02/01 07:59:01;;;;;;;;;7.00;7.00;;;;;8.69;48.08;98182.41;6157314;28;96377;-67
2023/02/01 08:02:06;;;;;;;;;7.00;7.00;;;;;8.75;48.01;98183.34;6143144;28;96693;-67
2023/02/01 08:05:09;;;;;;;;;7.60;7.00;;;;;8.62;48.29;98176.28;6160785;28;96824;-68
2023/02/01 08:08:13;;;;;;;;;6.80;6.00;;;;;8.56;48.23;98179.03;6152917;28;96283;-67
2023/02/01 08:11:17;;;;;;;;;7.00;6.00;;;;;8.59;48.35;98186.66;6148860;28;96772;-67
2023/02/01 08:14:20;;;;;;;;;7.00;6.60;;;;;8.67;48.21;98179.13;6148616;28;96359;-67
2023/02/01 08:17:26;;;;;;;;;7.40;7.40;;;;;8.67;48.00;98178.28;6152748;28;96288;-67
2023/02/01 08:20:29;;;;;;;;;7.40;7.40;;;;;8.83;47.78;98174.97;6162352;28;96446;-67
2023/02/01 08:23:33;;;;;;;;;5.60;5.60;;;;;8.89;47.34;98176.75;6143835;28;96625;-67
2023/02/01 08:26:36;;;;;;;;;8.00;6.60;;;;;8.90;47.46;98178.38;6164811;28;96900;-68
2023/02/01 08:29:40;;;;;;;;;7.60;7.60;;;;;9.04;46.99;98187.91;6165182;28;97017;-68
2023/02/01 08:32:44;;;;;;;;;10.40;10.40;;;;;9.15;46.80;98178.22;6163806;28;96230;-68
2023/02/01 08:35:48;;;;;;;;;7.00;6.50;;;;;9.26;46.37;98172.06;6142120;28;96669;-68
2023/02/01 08:38:51;;;;;;;;;9.60;9.00;;;;;9.23;45.87;98161.78;6146171;28;97269;-67
2023/02/01 08:45:12;;;;;;;;;8.50;8.00;;;;;9.12;45.62;98182.22;6143253;28;96335;-68
2023/02/01 08:48:17;;;;;;;;;7.00;7.00;;;;;8.92;45.99;98181.66;6161150;28;97537;-68
2023/02/01 08:51:22;;;;;;;;;9.00;8.60;;;;;8.90;46.37;98193.69;6162633;28;96363;-67
2023/02/01 08:54:25;;;;;;;;;7.00;6.60;;;;;8.77;46.35;98189.31;6160963;28;97052;-67
2023/02/01 08:57:28;;;;;;;;;6.00;6.00;;;;;8.93;46.50;98174.44;6142496;28;96574;-68
2023/02/01 09:00:32;;;;;;;;;7.25;7.00;;;;;8.78;46.60;98147.97;6145755;28;99177;-67
2023/02/01 09:03:37;;;;;;;;;9.00;9.00;;;;;8.80;46.66;98179.97;6160629;28;96266;-68
2023/02/01 09:06:41;;;;;;;;;9.00;8.00;;;;;9.12;46.89;98176.84;6141580;28;96729;-68
2023/02/01 09:09:46;;;;;;;;;8.00;7.20;;;;;9.12;46.57;98173.31;6161051;28;97153;-67
2023/02/01 09:12:49;;;;;;;;;7.60;7.40;;;;;9.18;46.02;98169.72;6156294;28;96773;-67
2023/02/01 09:15:53;;;;;;;;;8.50;8.00;;;;;9.33;46.67;98164.72;6155604;28;96878;-67
2023/02/01 09:18:58;;;;;;;;;8.00;8.00;;;;;9.30;46.58;98170.56;6154699;28;96272;-67
2023/02/01 09:22:21;;;;;;;;;8.00;8.00;;;;;9.18;46.66;98167.03;6154427;28;97020;-68
2023/02/01 09:25:25;;;;;;;;;7.80;7.00;;;;;9.48;46.57;98164.28;6158364;28;96307;-67
2023/02/01 09:28:28;;;;;;;;;8.00;8.00;;;;;9.63;46.39;98145.78;6159760;28;96345;-68
2023/02/01 09:31:31;;;;;;;;;7.00;7.00;;;;;9.90;44.84;98146.16;6151424;28;96358;-67
2023/02/01 09:34:36;;;;;;;;;5.00;5.00;;;;;10.14;44.21;98141.53;6137828;28;96976;-68
2023/02/01 09:37:39;;;;;;;;;10.00;9.00;;;;;10.32;43.63;98147.63;6153099;28;96818;-67
2023/02/01 09:40:47;;;;;;;;;6.00;5.40;;;;;10.54;43.70;98150.50;6155332;28;96371;-68
2023/02/01 09:44:00;;;;;;;;;10.00;10.00;;;;;10.77;42.77;98153.13;6138014;28;96670;-68
2023/02/01 09:47:04;;;;;;;;;12.00;10.00;;;;;10.65;43.13;98154.22;6155941;28;96347;-68
2023/02/01 09:50:16;;;;;;;;;8.00;7.00;;;;;10.50;43.36;98157.44;6155225;28;97333;-67
2023/02/01 09:53:26;;;;;;;;;10.60;9.00;;;;;10.41;43.49;98156.16;6155110;28;96285;-67
2023/02/01 09:56:37;;;;;;;;;8.60;8.60;;;;;10.31;44.23;98162.16;6149277;28;96810;-67
2023/02/01 09:59:44;;;;;;;;;8.00;7.00;;;;;10.41;43.95;98154.28;6154793;28;96402;-67
2023/02/01 10:02:48;;;;;;;;;7.00;6.00;;;;;10.59;44.05;98163.28;6154134;28;96652;-68
2023/02/01 10:06:25;;;;;;;;;6.00;6.00;;;;;10.46;44.80;98156.25;6153780;28;96392;-68
2023/02/01 10:09:45;;;;;;;;;4.50;4.50;;;;;10.17;45.41;98158.06;6138822;28;97074;-67
2023/02/01 10:13:17;;;;;;;;;7.25;6.25;;;;;9.94;46.26;98156.22;6131593;28;98577;-67
2023/02/01 10:16:36;;;;;;;;;5.20;5.20;;;;;10.09;46.61;98166.50;6146845;28;96699;-67
2023/02/01 10:19:52;;;;;;;;;6.50;6.00;;;;;10.00;47.08;98166.03;6147027;28;96386;-67
2023/02/01 10:23:09;;;;;;;;;6.00;5.00;;;;;9.64;47.17;98114.31;6142283;28;96819;-68
2023/02/01 10:26:37;;;;;;;;;7.00;6.20;;;;;9.87;47.44;98154.72;6147226;28;97880;-68
2023/02/01 10:29:43;;;;;;;;;8.00;8.00;;;;;9.87;48.26;98141.25;6147416;28;96322;-67
2023/02/01 10:32:49;;;;;;;;;8.00;8.00;;;;;9.72;48.55;98149.78;6147655;28;96733;-68
2023/02/01 10:35:57;;;;;;;;;8.00;7.00;;;;;9.43;49.57;98143.44;6149088;28;96259;-68
2023/02/01 10:39:04;;;;;;;;;8.60;8.00;;;;;9.64;49.18;98133.16;6136008;28;96588;-68
2023/02/01 10:42:09;;;;;;;;;10.00;9.00;;;;;9.74;49.50;98131.50;6130771;28;96455;-68
2023/02/01 10:45:18;;;;;;;;;9.00;9.00;;;;;9.57;50.12;98139.50;6130531;28;96739;-68
2023/02/01 10:48:21;;;;;;;;;10.00;9.40;;;;;9.52;50.38;98128.59;6128400;28;96500;-67
2023/02/01 10:51:29;;;;;;;;;10.40;10.40;;;;;9.43;50.80;98129.97;6149498;28;96546;-68
2023/02/01 10:54:38;;;;;;;;;11.00;10.40;;;;;9.38;50.82;98132.53;6126225;28;95985;-66
2023/02/01 10:57:42;;;;;;;;;11.00;10.00;;;;;9.37;51.32;98127.41;6150813;28;96358;-67
2023/02/01 11:00:49;;;;;;;;;11.00;11.00;;;;;9.36;51.01;98128.47;6139755;28;96490;-68
2023/02/01 11:03:54;;;;;;;;;10.80;10.00;;;;;9.38;50.51;98140.63;6133538;28;97239;-68
2023/02/01 11:07:08;;;;;;;;;9.60;9.60;;;;;9.45;50.78;98127.88;6134974;28;98504;-66
2023/02/01 11:10:37;;;;;;;;;13.00;13.00;;;;;9.20;51.17;98115.69;6151325;28;96838;-67
2023/02/01 11:13:42;;;;;;;;;8.75;8.75;;;;;9.35;51.45;98108.81;6153396;28;96290;-67
2023/02/01 11:16:49;;;;;;;;;11.00;11.00;;;;;9.48;50.96;98105.88;6155731;28;96388;-67
2023/02/01 11:19:58;;;;;;;;;10.00;8.50;;;;;9.40;51.16;98113.50;6152747;28;96161;-66
2023/02/01 11:23:02;;;;;;;;;7.80;7.00;;;;;9.40;50.78;98108.09;6151121;28;96280;-66
2023/02/01 11:26:12;;;;;;;;;8.50;8.50;;;;;9.43;50.80;98108.47;6152506;28;96229;-68
2023/02/01 11:29:22;;;;;;;;;11.60;11.60;;;;;9.38;50.77;98100.25;6152599;28;96865;-67
2023/02/01 11:32:25;;;;;;;;;5.80;5.80;;;;;9.35;50.54;98098.06;6139319;28;96315;-66
2023/02/01 11:35:30;;;;;;;;;12.60;12.60;;;;;9.35;50.93;98100.75;6154405;28;96350;-67
2023/02/01 11:38:35;;;;;;;;;9.00;8.80;;;;;9.33;51.38;98105.56;6150356;28;96619;-67
2023/02/01 11:41:45;;;;;;;;;6.00;6.00;;;;;9.14;51.75;98098.59;6147854;28;96312;-66
2023/02/01 11:44:49;;;;;;;;;9.40;8.80;;;;;9.01;52.11;98086.19;6148503;28;96315;-67
2023/02/01 11:47:54;;;;;;;;;9.00;9.00;;;;;9.23;52.34;98093.72;6136209;28;96414;-67
2023/02/01 11:51:15;;;;;;;;;13.20;12.20;;;;;9.25;52.02;98097.81;6134336;28;96813;-67
2023/02/01 11:54:48;;;;;;;;;10.60;8.60;;;;;9.39;52.15;98093.00;6153392;28;96844;-66
2023/02/01 11:58:07;;;;;;;;;8.80;8.20;;;;;9.26;52.33;98088.69;6145229;28;96432;-67
2023/02/01 12:01:28;;;;;;;;;8.60;8.00;;;;;9.00;52.96;98065.75;6141427;28;96229;-67
2023/02/01 12:05:08;;;;;;;;;6.80;6.00;;;;;9.26;53.11;98075.25;6144121;28;96578;-67
2023/02/01 12:08:32;;;;;;;;;6.75;6.75;;;;;8.99;53.73;98077.53;6148883;28;97299;-68
2023/02/01 12:11:47;;;;;;;;;10.40;10.00;;;;;9.22;53.91;98071.38;6134960;28;96381;-68
2023/02/01 12:15:05;;;;;;;;;7.75;7.75;;;;;9.41;53.50;98072.91;6126893;28;97110;-67
2023/02/01 12:18:34;;;;;;;;;8.00;7.00;;;;;9.57;51.95;98053.38;6146089;28;96444;-68
2023/02/01 12:21:51;;;;;;;;;7.60;6.60;;;;;9.66;52.05;98063.78;6133080;28;96709;-68
2023/02/01 12:25:36;;;;;;;;;8.40;6.60;;;;;9.57;50.89;98047.19;6144032;28;97396;-67
2023/02/01 12:29:05;;;;;;;;;7.40;7.00;;;;;9.60;50.65;98048.56;6097194;28;96258;-67
2023/02/01 12:32:18;;;;;;;;;10.60;10.00;;;;;9.57;50.47;98045.31;6150022;28;96297;-67
2023/02/01 12:35:44;;;;;;;;;9.00;9.00;;;;;9.28;50.93;98042.75;6145752;28;96810;-67
2023/02/01 12:38:54;;;;;;;;;9.00;7.60;;;;;9.52;50.79;98041.69;6145907;28;96975;-67
2023/02/01 12:42:03;;;;;;;;;11.00;10.40;;;;;9.54;50.71;98042.25;6149656;28;96516;-68
2023/02/01 12:45:14;;;;;;;;;8.00;8.00;;;;;9.44;50.93;98047.41;6146335;28;96576;-69
2023/02/01 12:48:30;;;;;;;;;10.40;10.40;;;;;9.44;51.66;98047.41;6145867;28;96306;-67
2023/02/01 12:51:37;;;;;;;;;10.40;9.40;;;;;9.56;51.79;98037.47;6142922;28;97030;-66
2023/02/01 12:54:46;;;;;;;;;9.00;7.00;;;;;9.57;51.87;98037.25;6144302;28;96948;-68
2023/02/01 12:57:54;;;;;;;;;8.60;8.00;;;;;9.55;51.93;98023.19;6144145;28;96618;-67
2023/02/01 13:01:03;;;;;;;;;7.40;6.40;;;;;9.49;51.54;98036.75;6145174;28;96341;-67
2023/02/01 13:04:16;;;;;;;;;7.80;7.00;;;;;9.41;51.68;98016.44;6150231;28;97028;-67
2023/02/01 13:07:23;;;;;;;;;9.20;8.20;;;;;9.29;52.08;98020.16;6136418;28;98934;-68
2023/02/01 13:10:43;;;;;;;;;9.00;9.00;;;;;9.25;51.25;98021.69;6153930;28;96372;-67
2023/02/01 13:13:57;;;;;;;;;11.00;11.00;;;;;9.46;51.24;98024.59;6154173;28;96222;-67
2023/02/01 13:17:04;;;;;;;;;6.50;6.50;;;;;9.26;50.89;98015.25;6141644;28;96344;-68
2023/02/01 13:20:20;;;;;;;;;12.20;10.80;;;;;9.37;50.97;98011.75;6149282;28;96926;-68
2023/02/01 13:23:29;;;;;;;;;12.00;11.00;;;;;9.37;50.79;98014.44;6154797;28;96693;-66
2023/02/01 13:26:32;;;;;;;;;7.60;7.60;;;;;9.34;50.91;98010.34;6121199;28;97095;-68
2023/02/01 13:29:38;;;;;;;;;10.00;10.00;;;;;9.40;50.51;98003.19;6142465;28;96703;-67
2023/02/01 13:33:03;;;;;;;;;10.00;9.25;;;;;9.48;50.38;97992.88;6158366;28;97604;-68
2023/02/01 13:36:49;;;;;;;;;9.60;9.60;;;;;9.49;50.08;98001.78;6140559;28;96619;-67
2023/02/01 13:40:08;;;;;;;;;8.40;8.00;;;;;9.45;50.19;97979.09;6160196;28;96217;-67
2023/02/01 13:43:16;;;;;;;;;10.00;9.00;;;;;9.56;50.41;97989.84;6152493;28;98360;-68
2023/02/01 13:46:20;;;;;;;;;10.00;9.00;;;;;9.66;49.88;97991.13;6140964;28;96698;-67
2023/02/01 13:49:28;;;;;;;;;12.00;10.00;;;;;9.20;50.39;97995.50;6153251;28;96317;-67
2023/02/01 13:52:39;;;;;;;;;10.20;10.00;;;;;9.10;51.50;97997.94;6152155;28;96419;-67
2023/02/01 13:55:45;;;;;;;;;9.75;9.00;;;;;9.25;51.36;97981.34;6136895;28;97599;-68
2023/02/01 13:58:51;;;;;;;;;8.00;8.00;;;;;9.26;51.67;97991.06;6151702;28;96930;-67
2023/02/01 14:01:54;;;;;;;;;10.00;9.00;;;;;9.20;51.39;97991.97;6149095;28;96870;-67
2023/02/01 14:04:57;;;;;;;;;12.00;11.80;;;;;9.20;51.11;97973.16;6152251;28;96887;-68
2023/02/01 14:08:13;;;;;;;;;8.80;8.00;;;;;9.30;50.75;97982.28;6157053;28;96656;-68
2023/02/01 14:11:43;;;;;;;;;12.40;12.40;;;;;9.38;50.10;97981.91;6156224;28;96207;-67
2023/02/01 14:14:49;;;;;;;;;10.00;10.00;;;;;9.45;49.74;97992.56;6160133;28;96595;-68
2023/02/01 14:17:53;;;;;;;;;9.00;9.00;;;;;9.47;49.44;97987.75;6157595;28;97230;-67
2023/02/01 14:21:18;;;;;;;;;7.00;7.00;;;;;9.41;49.61;97981.44;6160166;28;96558;-68
2023/02/01 14:24:30;;;;;;;;;9.00;9.00;;;;;9.23;49.48;97965.47;6162073;28;96219;-68
2023/02/01 14:27:36;;;;;;;;;10.00;10.00;;;;;9.21;49.80;97977.50;6158957;28;96290;-68
2023/02/01 14:30:43;;;;;;;;;10.00;10.00;;;;;9.26;49.63;97972.22;6160295;28;96512;-67
2023/02/01 14:33:47;;;;;;;;;7.00;7.00;;;;;9.35;49.55;97970.81;6141394;28;96451;-67
2023/02/01 14:36:57;;;;;;;;;7.00;6.25;;;;;9.32;49.64;97974.81;6161048;28;96218;-67
2023/02/01 14:40:04;;;;;;;;;7.00;7.00;;;;;9.17;50.09;97970.94;6157635;28;96752;-67
2023/02/01 14:43:09;;;;;;;;;9.40;8.00;;;;;9.08;50.85;97970.50;6151973;28;96156;-67
2023/02/01 14:47:05;;;;;;;;;7.00;6.80;;;;;9.04;51.83;97963.94;6162132;28;96781;-67
2023/02/01 14:50:40;;;;;;;;;7.00;6.00;;;;;8.70;53.02;97962.84;6135630;28;96942;-67
2023/02/01 14:53:46;;;;;;;;;9.00;9.00;;;;;8.69;53.64;97962.06;6148614;28;96349;-67
2023/02/01 14:56:52;;;;;;;;;8.00;8.00;;;;;8.72;53.57;97959.94;6151490;28;96385;-67
2023/02/01 15:00:09;;;;;;;;;9.80;9.80;;;;;8.61;54.40;97945.44;6152415;28;96498;-68
2023/02/01 15:03:35;;;;;;;;;10.00;10.00;;;;;8.54;55.36;97971.63;6133162;28;96623;-67
2023/02/01 15:06:40;;;;;;;;;6.75;6.75;;;;;8.51;56.14;97980.13;6152246;28;96266;-67
2023/02/01 15:09:46;;;;;;;;;8.00;8.00;;;;;8.49;56.41;97968.81;6153190;28;96213;-66
2023/02/01 15:12:52;;;;;;;;;8.00;8.00;;;;;8.58;56.88;97978.16;6139695;28;96450;-67
2023/02/01 15:16:10;;;;;;;;;8.00;7.60;;;;;8.67;56.96;97987.50;6155952;28;97479;-68
2023/02/01 15:19:15;;;;;;;;;8.40;8.00;;;;;8.45;57.80;97992.63;6145719;28;96824;-67
2023/02/01 15:22:19;;;;;;;;;9.00;8.60;;;;;8.31;58.59;97982.31;6158014;28;96368;-67
2023/02/01 15:25:26;;;;;;;;;5.60;5.60;;;;;8.18;58.81;97981.41;6138072;28;97031;-68